Time;durP1;ratioP1;P1;durP2;ratioP2;P2;SDS_P1;SDS_P2;PMS_P1;PMS_P2;Temp;Humidity;BMP_temperature;BMP_pressure;BME280_temperature;BME280_humidity;BME280_pressure;Samples;Min_cycle;Max_cycle;Signal;HPM_P1;HPM_P2
2023/02/10 00:02:23;;;;;;;3.27;3.03;;;-1.10;97.30;;;;;;5061882;28;20657;-84
2023/02/10 00:04:48;;;;;;;4.93;3.13;;;-1.10;97.30;;;;;;5053862;28;20205;-84
2023/02/10 00:07:14;;;;;;;5.93;3.30;;;-1.10;97.30;;;;;;5055337;28;20951;-83
2023/02/10 00:09:39;;;;;;;5.67;4.33;;;-1.10;97.30;;;;;;5055375;28;20244;-84
2023/02/10 00:12:07;;;;;;;2.20;1.97;;;-1.10;97.30;;;;;;5054397;28;20206;-83
2023/02/10 00:14:33;;;;;;;12.03;4.90;;;-1.10;97.30;;;;;;5062072;28;20198;-85
2023/02/10 00:16:59;;;;;;;6.43;3.53;;;-1.20;97.30;;;;;;5054647;28;21078;-85
2023/02/10 00:19:27;;;;;;;1.27;1.17;;;-1.20;97.30;;;;;;5075287;28;20186;-84
2023/02/10 00:21:52;;;;;;;3.43;2.73;;;-1.20;97.30;;;;;;5064003;28;20850;-84
2023/02/10 00:24:19;;;;;;;6.10;2.73;;;-1.20;97.30;;;;;;5055100;28;20512;-83
2023/02/10 00:26:44;;;;;;;2.80;2.60;;;-1.20;97.30;;;;;;5055144;28;20209;-85
2023/02/10 00:29:10;;;;;;;9.37;1.63;;;-1.20;97.30;;;;;;5054975;28;20414;-84
2023/02/10 00:31:35;;;;;;;6.97;4.47;;;-1.20;97.30;;;;;;5059364;28;20211;-84
2023/02/10 00:34:01;;;;;;;5.40;4.13;;;-1.20;97.30;;;;;;5062891;28;20195;-84
2023/02/10 00:36:26;;;;;;;4.10;3.87;;;-1.10;97.30;;;;;;5044814;28;20284;-84
2023/02/10 00:38:52;;;;;;;5.50;1.73;;;-1.10;97.30;;;;;;5056355;28;20186;-83
2023/02/10 00:41:20;;;;;;;4.87;3.23;;;-1.00;97.30;;;;;;5055152;28;20332;-84
2023/02/10 00:43:45;;;;;;;4.30;1.63;;;-1.00;97.30;;;;;;5073772;28;20187;-84
2023/02/10 00:46:13;;;;;;;4.13;3.90;;;-0.90;97.30;;;;;;5079407;28;20993;-82
2023/02/10 00:48:38;;;;;;;2.90;1.63;;;-0.90;97.30;;;;;;5068430;28;20191;-84
2023/02/10 00:51:04;;;;;;;9.13;4.50;;;-0.80;97.30;;;;;;5064229;28;20475;-84
2023/02/10 00:53:30;;;;;;;7.13;3.63;;;-0.80;97.30;;;;;;5069229;28;20217;-84
2023/02/10 00:55:56;;;;;;;3.27;3.00;;;-0.80;97.30;;;;;;5058749;28;20465;-83
2023/02/10 00:58:22;;;;;;;9.40;3.07;;;-0.80;97.30;;;;;;5075223;28;20417;-83
2023/02/10 01:00:48;;;;;;;2.90;2.70;;;-0.70;97.30;;;;;;5056412;28;20426;-84
2023/02/10 01:03:14;;;;;;;3.30;3.17;;;-0.70;97.30;;;;;;5054628;28;20645;-84
2023/02/10 01:05:40;;;;;;;1.77;1.67;;;-0.70;97.30;;;;;;5072354;28;20237;-83
2023/02/10 01:08:05;;;;;;;3.33;3.13;;;-0.70;97.30;;;;;;5080567;28;20417;-83
2023/02/10 01:10:34;;;;;;;7.90;2.63;;;-0.60;97.30;;;;;;5054575;28;20429;-84
2023/02/10 01:13:01;;;;;;;1.93;1.80;;;-0.60;97.30;;;;;;5066091;28;20187;-83
2023/02/10 01:15:26;;;;;;;6.00;3.00;;;-0.60;97.30;;;;;;5058662;28;20456;-84
2023/02/10 01:17:52;;;;;;;2.90;2.70;;;-0.60;97.30;;;;;;5065293;28;20422;-85
2023/02/10 01:20:18;;;;;;;4.07;2.60;;;-0.60;97.30;;;;;;5071714;28;20231;-83
2023/02/10 01:22:44;;;;;;;2.23;2.07;;;-0.50;97.30;;;;;;5087972;28;20178;-83
2023/02/10 01:25:09;;;;;;;2.17;1.70;;;-0.50;97.30;;;;;;5058412;28;20544;-84
2023/02/10 01:27:35;;;;;;;7.00;5.10;;;-0.50;97.30;;;;;;5058411;28;20179;-84
2023/02/10 01:30:01;;;;;;;4.67;3.00;;;-0.50;97.30;;;;;;5068541;28;20674;-84
2023/02/10 01:32:26;;;;;;;4.77;3.83;;;-0.50;97.30;;;;;;5078217;28;20269;-84
2023/02/10 01:34:52;;;;;;;4.23;2.60;;;-0.50;97.30;;;;;;5071933;28;20520;-84
2023/02/10 01:37:17;;;;;;;1.57;1.47;;;-0.40;97.30;;;;;;5057540;28;20185;-83
2023/02/10 01:39:43;;;;;;;1.43;1.33;;;-0.40;97.30;;;;;;5057976;28;20176;-83
2023/02/10 01:42:13;;;;;;;2.07;1.93;;;-0.40;97.30;;;;;;5079457;28;20804;-84
2023/02/10 01:44:38;;;;;;;4.77;2.83;;;-0.40;97.30;;;;;;5087792;28;20179;-84
2023/02/10 01:47:04;;;;;;;5.10;3.17;;;-0.30;97.30;;;;;;5068848;28;20456;-83
2023/02/10 01:49:33;;;;;;;1.77;1.67;;;-0.30;97.30;;;;;;5077710;28;20176;-84
2023/02/10 01:52:14;;;;;;;5.70;2.83;;;-0.30;97.30;;;;;;5069393;28;20563;-84
2023/02/10 01:54:45;;;;;;;1.87;1.77;;;-0.30;97.30;;;;;;5069111;28;20962;-83
2023/02/10 01:57:11;;;;;;;9.83;4.20;;;-0.20;97.30;;;;;;5077548;28;20409;-84
2023/02/10 01:59:39;;;;;;;4.30;2.40;;;-0.20;97.30;;;;;;5061548;28;20421;-84
2023/02/10 02:02:08;;;;;;;4.10;2.90;;;-0.20;97.30;;;;;;5057361;28;20437;-84
2023/02/10 02:04:45;;;;;;;3.40;3.20;;;-0.20;97.30;;;;;;5083929;28;20426;-84
2023/02/10 02:07:10;;;;;;;2.13;1.97;;;-0.20;97.30;;;;;;5064499;28;20226;-84
2023/02/10 02:09:36;;;;;;;2.70;2.50;;;-0.20;97.30;;;;;;5056536;28;20449;-82
2023/02/10 02:12:11;;;;;;;2.90;2.70;;;-0.10;97.30;;;;;;5066444;28;20748;-84
2023/02/10 02:14:53;;;;;;;2.50;2.30;;;-0.10;97.30;;;;;;5061028;28;20193;-84
2023/02/10 02:17:32;;;;;;;3.80;3.57;;;-0.10;97.30;;;;;;5069462;28;20926;-84
2023/02/10 02:20:41;;;;;;;21.83;5.77;;;-0.10;97.30;;;;;;5075870;28;20308;-84
2023/02/10 02:23:12;;;;;;;4.00;2.80;;;-0.10;97.30;;;;;;5065226;28;20457;-84
2023/02/10 02:25:40;;;;;;;10.20;6.83;;;-0.10;97.30;;;;;;5057195;28;20468;-84
2023/02/10 02:28:44;;;;;;;4.83;4.53;;;0.00;97.30;;;;;;5056890;28;20229;-84
2023/02/10 02:31:28;;;;;;;13.20;5.07;;;0.00;97.30;;;;;;4961366;28;20424;-84
2023/02/10 02:34:06;;;;;;;2.67;2.47;;;0.00;97.30;;;;;;5049777;28;20443;-84
2023/02/10 02:36:40;;;;;;;7.33;4.30;;;0.00;97.30;;;;;;5056503;28;20470;-84
2023/02/10 02:39:05;;;;;;;4.00;3.80;;;0.00;97.30;;;;;;5055658;28;20661;-84
2023/02/10 02:41:33;;;;;;;2.97;2.77;;;0.00;97.30;;;;;;5056861;28;20416;-84
2023/02/10 02:43:59;;;;;;;8.67;2.57;;;0.00;97.30;;;;;;5064964;28;20900;-84
2023/02/10 02:46:25;;;;;;;3.87;2.43;;;0.00;97.30;;;;;;5080311;28;20813;-84
2023/02/10 02:48:53;;;;;;;6.77;3.13;;;0.00;97.30;;;;;;5067273;28;20426;-83
2023/02/10 02:51:46;;;;;;;3.03;2.83;;;0.00;97.30;;;;;;5088264;28;20178;-84
2023/02/10 02:54:23;;;;;;;7.20;2.43;;;0.00;97.30;;;;;;5076510;28;20276;-84
2023/02/10 02:57:01;;;;;;;3.60;2.20;;;0.10;97.30;;;;;;5059410;28;20429;-84
2023/02/10 02:59:40;;;;;;;20.60;3.33;;;0.10;97.30;;;;;;5062523;28;20428;-84
2023/02/10 03:02:15;;;;;;;3.53;3.33;;;0.10;97.30;;;;;;5059250;28;20426;-84
2023/02/10 03:04:42;;;;;;;6.90;3.50;;;0.10;97.30;;;;;;5086413;28;20428;-83
2023/02/10 03:07:08;;;;;;;4.67;2.90;;;0.10;97.30;;;;;;5068385;28;21029;-84
2023/02/10 03:09:34;;;;;;;4.03;2.97;;;0.10;97.30;;;;;;5069450;28;20519;-84
2023/02/10 03:12:00;;;;;;;5.20;3.67;;;0.10;97.30;;;;;;5055768;28;20183;-84
2023/02/10 03:14:26;;;;;;;33.17;4.63;;;0.20;97.30;;;;;;5073772;28;21084;-84
2023/02/10 03:16:51;;;;;;;5.17;3.23;;;0.20;97.30;;;;;;5055780;28;20202;-84
2023/02/10 03:19:17;;;;;;;5.90;3.87;;;0.20;97.30;;;;;;5059876;28;20179;-84
2023/02/10 03:21:43;;;;;;;3.63;3.43;;;0.20;97.30;;;;;;5058969;28;20179;-84
2023/02/10 03:24:08;;;;;;;6.43;3.10;;;0.20;97.30;;;;;;5072051;28;20939;-84
2023/02/10 03:26:35;;;;;;;8.20;5.23;;;0.20;97.30;;;;;;5064045;28;20653;-83
2023/02/10 03:29:02;;;;;;;2.57;2.27;;;0.20;97.30;;;;;;5055402;28;20186;-84
2023/02/10 03:31:27;;;;;;;6.37;5.10;;;0.30;97.30;;;;;;5055259;28;20784;-84
2023/02/10 03:33:53;;;;;;;3.83;3.40;;;0.30;97.30;;;;;;5055272;28;20457;-83
2023/02/10 03:36:18;;;;;;;9.73;5.03;;;0.30;97.30;;;;;;5085770;28;20194;-84
2023/02/10 03:38:45;;;;;;;4.00;3.80;;;0.30;97.30;;;;;;5067526;28;20171;-84
2023/02/10 03:41:11;;;;;;;3.43;2.93;;;0.30;97.30;;;;;;5055294;28;20175;-82
2023/02/10 03:43:36;;;;;;;2.57;2.40;;;0.30;97.30;;;;;;5080557;28;20499;-83
2023/02/10 03:46:04;;;;;;;12.40;3.73;;;0.30;97.30;;;;;;5075215;28;20460;-84
2023/02/10 03:48:33;;;;;;;4.77;3.10;;;0.40;97.30;;;;;;5087533;28;20179;-84
2023/02/10 03:51:01;;;;;;;1.97;1.83;;;0.40;97.30;;;;;;5056639;28;20490;-83
2023/02/10 03:53:27;;;;;;;11.23;4.63;;;0.40;97.30;;;;;;5063096;28;20842;-84
2023/02/10 03:55:53;;;;;;;19.60;7.67;;;0.40;97.30;;;;;;5054851;28;20469;-84
2023/02/10 03:58:18;;;;;;;2.37;2.17;;;0.40;97.30;;;;;;5063297;28;20464;-84
2023/02/10 04:00:44;;;;;;;4.03;3.37;;;0.40;97.30;;;;;;5052192;28;20182;-84
2023/02/10 04:03:09;;;;;;;9.30;5.60;;;0.50;97.30;;;;;;5054598;28;20183;-84
2023/02/10 04:05:34;;;;;;;3.20;3.00;;;0.50;97.30;;;;;;5061613;28;20205;-84
2023/02/10 04:08:00;;;;;;;6.47;5.27;;;0.50;97.30;;;;;;5082778;28;20193;-84
2023/02/10 04:10:26;;;;;;;5.53;3.83;;;0.50;97.30;;;;;;5054899;28;20190;-84
2023/02/10 04:12:51;;;;;;;5.23;3.07;;;0.50;97.30;;;;;;5063480;28;20209;-84
2023/02/10 04:15:17;;;;;;;4.90;3.73;;;0.50;97.30;;;;;;5071773;28;20449;-84
2023/02/10 04:17:43;;;;;;;5.17;4.60;;;0.60;97.30;;;;;;5055600;28;20553;-84
2023/02/10 04:20:10;;;;;;;11.73;5.97;;;0.60;97.30;;;;;;5057469;28;20475;-83
2023/02/10 04:22:35;;;;;;;5.70;4.27;;;0.60;97.30;;;;;;5057190;28;20426;-82
2023/02/10 04:25:01;;;;;;;6.17;3.40;;;0.60;97.30;;;;;;5071623;28;20451;-83
2023/02/10 04:27:26;;;;;;;4.07;3.40;;;0.60;97.30;;;;;;5063010;28;20222;-84
2023/02/10 04:29:52;;;;;;;4.57;4.27;;;0.60;97.30;;;;;;5062984;28;20180;-83
2023/02/10 04:32:17;;;;;;;7.00;4.43;;;0.60;97.30;;;;;;5054407;28;20183;-84
2023/02/10 04:34:42;;;;;;;5.60;3.97;;;0.60;97.30;;;;;;5054643;28;20206;-83
2023/02/10 04:37:08;;;;;;;5.20;2.87;;;0.50;97.30;;;;;;5057802;28;20190;-83
2023/02/10 04:39:33;;;;;;;4.07;3.20;;;0.60;97.30;;;;;;5068995;28;20187;-83
2023/02/10 04:41:59;;;;;;;4.30;3.53;;;0.60;97.30;;;;;;5056621;28;20808;-83
2023/02/10 04:44:24;;;;;;;11.40;4.40;;;0.60;97.30;;;;;;5061247;28;20191;-83
2023/02/10 04:46:50;;;;;;;3.20;2.27;;;0.60;97.30;;;;;;5054015;28;20272;-84
2023/02/10 04:49:16;;;;;;;2.80;2.60;;;0.60;97.30;;;;;;5089307;28;20184;-83
2023/02/10 04:51:42;;;;;;;3.23;3.03;;;0.60;97.30;;;;;;5080500;28;20527;-83
2023/02/10 04:54:07;;;;;;;7.73;4.57;;;0.60;97.30;;;;;;5066112;28;20695;-83
2023/02/10 04:56:33;;;;;;;5.80;4.23;;;0.60;97.30;;;;;;5074992;28;20519;-83
2023/02/10 04:58:59;;;;;;;7.13;5.30;;;0.60;97.30;;;;;;5085427;28;20179;-83
2023/02/10 05:01:24;;;;;;;12.93;3.80;;;0.60;97.30;;;;;;5061323;28;20180;-82
2023/02/10 05:03:50;;;;;;;4.77;3.70;;;0.60;97.30;;;;;;5063203;28;20194;-83
2023/02/10 05:06:15;;;;;;;6.70;5.33;;;0.60;97.30;;;;;;5054868;28;20203;-83
2023/02/10 05:08:41;;;;;;;8.10;6.70;;;0.60;97.30;;;;;;5054689;28;20179;-83
2023/02/10 05:11:09;;;;;;;8.33;5.40;;;0.60;97.30;;;;;;5055721;28;20187;-83
2023/02/10 05:13:35;;;;;;;5.87;5.17;;;0.60;97.30;;;;;;5063026;28;21054;-83
2023/02/10 05:16:02;;;;;;;4.83;4.53;;;0.60;97.30;;;;;;5068535;28;20579;-83
2023/02/10 05:18:29;;;;;;;3.43;3.23;;;0.60;97.30;;;;;;5054186;28;20192;-83
2023/02/10 05:20:54;;;;;;;28.40;4.60;;;0.60;97.30;;;;;;5055437;28;20434;-82
2023/02/10 05:23:20;;;;;;;5.83;5.00;;;0.60;97.30;;;;;;5080255;28;20806;-85
2023/02/10 05:25:46;;;;;;;14.03;4.50;;;0.60;97.30;;;;;;5053655;28;20207;-82
2023/02/10 05:28:12;;;;;;;10.03;5.73;;;0.60;97.30;;;;;;5054892;28;20198;-83
2023/02/10 05:30:37;;;;;;;8.53;2.87;;;0.60;97.30;;;;;;5054866;28;20437;-83
2023/02/10 05:33:03;;;;;;;4.47;3.80;;;0.60;97.30;;;;;;5054195;28;20179;-83
2023/02/10 05:35:28;;;;;;;13.80;6.13;;;0.60;97.30;;;;;;5081043;28;20602;-83
2023/02/10 05:37:54;;;;;;;9.80;3.03;;;0.60;97.30;;;;;;5054591;28;20179;-83
2023/02/10 05:40:19;;;;;;;10.73;6.77;;;0.60;97.30;;;;;;5058493;28;20285;-84
2023/02/10 05:42:44;;;;;;;10.50;4.43;;;0.60;97.30;;;;;;5058682;28;20209;-83
2023/02/10 05:45:10;;;;;;;19.63;6.67;;;0.70;97.30;;;;;;5074951;28;20222;-83
2023/02/10 05:47:35;;;;;;;7.83;6.50;;;0.70;97.30;;;;;;5065650;28;20226;-83
2023/02/10 05:50:01;;;;;;;6.40;5.63;;;0.70;97.30;;;;;;5054934;28;20684;-82
2023/02/10 05:52:26;;;;;;;14.50;5.80;;;0.70;97.30;;;;;;5067177;28;20189;-83
2023/02/10 05:54:52;;;;;;;7.20;5.47;;;0.70;97.30;;;;;;5057573;28;20281;-83
2023/02/10 05:57:17;;;;;;;7.93;5.07;;;0.70;97.30;;;;;;5054246;28;20171;-83
2023/02/10 05:59:43;;;;;;;8.27;6.03;;;0.70;97.30;;;;;;5083094;28;20778;-82
2023/02/10 06:02:08;;;;;;;11.03;7.80;;;0.70;97.30;;;;;;5068798;28;20185;-83
2023/02/10 06:04:34;;;;;;;18.00;6.30;;;0.70;97.30;;;;;;5077676;28;20182;-83
2023/02/10 06:06:59;;;;;;;7.20;4.83;;;0.70;97.30;;;;;;5067850;28;20684;-83
2023/02/10 06:09:27;;;;;;;7.50;6.60;;;0.70;97.30;;;;;;5057651;28;20179;-82
2023/02/10 06:11:52;;;;;;;8.30;5.50;;;0.80;97.30;;;;;;5058456;28;20642;-83
2023/02/10 06:14:18;;;;;;;22.67;6.23;;;0.80;97.30;;;;;;5078865;28;20461;-82
2023/02/10 06:16:44;;;;;;;4.07;3.10;;;0.80;97.30;;;;;;5068031;28;20230;-83
2023/02/10 06:19:09;;;;;;;15.67;7.03;;;0.80;97.30;;;;;;5075436;28;20425;-83
2023/02/10 06:21:35;;;;;;;9.73;7.13;;;0.80;97.30;;;;;;5076000;28;20191;-83
2023/02/10 06:24:01;;;;;;;7.93;4.60;;;0.80;97.30;;;;;;5077407;28;20201;-84
2023/02/10 06:26:27;;;;;;;5.73;5.43;;;0.80;97.30;;;;;;5074104;28;20207;-83
2023/02/10 06:28:53;;;;;;;4.10;3.90;;;0.80;97.30;;;;;;5064735;28;20259;-84
2023/02/10 06:31:19;;;;;;;2.70;2.50;;;0.80;97.30;;;;;;5059004;28;21026;-85
2023/02/10 06:33:47;;;;;;;9.07;4.80;;;0.80;97.30;;;;;;5056316;28;20467;-84
2023/02/10 06:36:13;;;;;;;5.83;4.87;;;0.80;97.30;;;;;;5054666;28;20453;-86
2023/02/10 06:38:38;;;;;;;3.67;3.53;;;0.90;97.30;;;;;;5051472;28;20421;-85
2023/02/10 06:41:05;;;;;;;7.03;4.50;;;0.90;97.30;;;;;;5053098;28;20413;-84
2023/02/10 06:43:30;;;;;;;6.57;6.17;;;0.90;97.30;;;;;;5047237;28;20211;-85
2023/02/10 06:45:56;;;;;;;11.67;5.03;;;0.90;97.30;;;;;;5046135;28;20789;-84
2023/02/10 06:48:21;;;;;;;10.17;6.00;;;0.90;97.30;;;;;;5034206;28;20205;-85
2023/02/10 06:50:47;;;;;;;7.50;5.70;;;0.90;97.30;;;;;;5061421;28;20179;-86
2023/02/10 06:53:12;;;;;;;9.63;6.20;;;0.90;97.30;;;;;;5037722;28;20176;-85
2023/02/10 06:55:38;;;;;;;23.53;7.20;;;0.90;97.30;;;;;;5048854;28;20195;-86
2023/02/10 06:58:03;;;;;;;5.27;5.00;;;0.90;97.30;;;;;;5034657;28;20182;-86
2023/02/10 07:00:32;;;;;;;8.00;5.50;;;1.00;97.30;;;;;;5043470;28;20585;-85
2023/02/10 07:02:57;;;;;;;7.47;5.90;;;1.00;97.30;;;;;;5032933;28;20355;-86
2023/02/10 07:05:23;;;;;;;10.07;6.77;;;1.00;97.30;;;;;;5033399;28;20450;-85
2023/02/10 07:07:50;;;;;;;6.80;6.40;;;1.00;97.30;;;;;;5033586;28;20430;-86
2023/02/10 07:10:19;;;;;;;7.87;6.80;;;1.00;97.30;;;;;;5047208;28;20198;-85
2023/02/10 07:12:46;;;;;;;9.67;4.77;;;1.00;97.30;;;;;;5039882;28;20460;-86
2023/02/10 07:15:12;;;;;;;8.13;4.27;;;1.10;97.30;;;;;;5034627;28;20489;-85
2023/02/10 07:17:38;;;;;;;10.40;6.43;;;1.10;97.30;;;;;;5058939;28;20475;-85
2023/02/10 07:20:05;;;;;;;8.17;7.23;;;1.10;97.30;;;;;;5037121;28;20426;-85
2023/02/10 07:22:30;;;;;;;4.87;4.20;;;1.10;97.30;;;;;;5043747;28;20205;-85
2023/02/10 07:24:56;;;;;;;7.67;3.77;;;1.10;97.30;;;;;;5043838;28;20415;-85
2023/02/10 07:27:22;;;;;;;8.03;5.80;;;1.10;97.30;;;;;;5058330;28;20246;-85
2023/02/10 07:29:48;;;;;;;16.47;8.93;;;1.20;97.30;;;;;;5072378;28;20420;-85
2023/02/10 07:32:14;;;;;;;6.73;5.00;;;1.20;97.30;;;;;;5045461;28;20171;-85
2023/02/10 07:34:40;;;;;;;14.53;6.47;;;1.20;97.30;;;;;;5047427;28;20458;-85
2023/02/10 07:37:06;;;;;;;7.57;6.20;;;1.20;97.30;;;;;;5033881;28;20414;-85
2023/02/10 07:39:31;;;;;;;9.90;7.23;;;1.20;97.30;;;;;;5033760;28;20180;-85
2023/02/10 07:41:57;;;;;;;7.33;5.67;;;1.20;97.30;;;;;;5051326;28;20414;-85
2023/02/10 07:44:22;;;;;;;5.90;5.60;;;1.30;97.30;;;;;;5042378;28;20188;-85
2023/02/10 07:46:50;;;;;;;11.67;6.77;;;1.30;97.30;;;;;;5052154;28;20227;-85
2023/02/10 07:49:16;;;;;;;25.43;9.30;;;1.30;97.30;;;;;;5060823;28;20261;-86
2023/02/10 07:51:42;;;;;;;7.03;6.63;;;1.30;97.30;;;;;;5052158;28;20932;-84
2023/02/10 07:54:08;;;;;;;15.40;6.03;;;1.30;97.30;;;;;;5041570;28;20203;-85
2023/02/10 07:56:33;;;;;;;6.73;5.97;;;1.40;97.30;;;;;;5033574;28;20496;-86
2023/02/10 07:58:59;;;;;;;14.93;5.10;;;1.40;97.30;;;;;;5029760;28;20230;-84
2023/02/10 08:01:24;;;;;;;24.03;9.33;;;1.40;97.30;;;;;;5033287;28;20183;-86
2023/02/10 08:03:50;;;;;;;15.30;7.23;;;1.40;97.30;;;;;;5040572;28;20187;-86
2023/02/10 08:06:20;;;;;;;10.00;6.37;;;1.40;97.30;;;;;;5042859;28;20211;-85
2023/02/10 08:08:47;;;;;;;20.73;5.60;;;1.50;97.30;;;;;;5033516;28;20188;-85
2023/02/10 08:11:12;;;;;;;13.40;6.60;;;1.50;97.30;;;;;;5051491;28;20421;-86
2023/02/10 08:13:38;;;;;;;3.67;3.33;;;1.50;97.30;;;;;;5041782;28;20477;-85
2023/02/10 08:16:04;;;;;;;9.00;5.17;;;1.50;97.30;;;;;;5034240;28;20231;-85
2023/02/10 08:18:30;;;;;;;3.87;3.67;;;1.50;97.30;;;;;;5053332;28;20269;-85
2023/02/10 08:20:58;;;;;;;12.67;5.60;;;1.50;97.30;;;;;;5045082;28;21050;-86
2023/02/10 08:23:24;;;;;;;13.23;6.37;;;1.60;97.30;;;;;;5059151;28;20266;-86
2023/02/10 08:25:50;;;;;;;17.83;9.57;;;1.60;97.30;;;;;;5050810;28;20623;-85
2023/02/10 08:28:16;;;;;;;9.00;6.73;;;1.60;97.30;;;;;;5033250;28;20649;-85
2023/02/10 08:30:42;;;;;;;5.53;4.40;;;1.60;97.30;;;;;;5033220;28;20457;-86
2023/02/10 08:33:07;;;;;;;14.73;6.90;;;1.70;97.30;;;;;;5032837;28;20194;-86
2023/02/10 08:35:36;;;;;;;13.00;8.27;;;1.70;97.30;;;;;;5026129;28;20256;-85
2023/02/10 08:38:01;;;;;;;24.10;8.47;;;1.70;97.30;;;;;;5032761;28;20188;-85
2023/02/10 08:40:27;;;;;;;4.30;3.63;;;1.80;97.30;;;;;;5033090;28;20514;-86
2023/02/10 08:42:52;;;;;;;5.80;4.97;;;1.80;97.30;;;;;;5041227;28;20489;-86
2023/02/10 08:45:18;;;;;;;21.10;6.63;;;1.80;97.30;;;;;;5041178;28;20195;-85
2023/02/10 08:47:43;;;;;;;13.50;7.20;;;1.80;97.30;;;;;;5050902;28;20820;-85
2023/02/10 08:50:09;;;;;;;13.33;8.27;;;1.90;97.30;;;;;;5052957;28;20202;-85
2023/02/10 08:52:35;;;;;;;11.73;4.53;;;1.90;97.30;;;;;;5070781;28;20187;-86
2023/02/10 08:55:01;;;;;;;12.57;8.47;;;1.90;97.30;;;;;;5052399;28;20237;-85
2023/02/10 08:57:27;;;;;;;7.60;4.20;;;2.00;97.30;;;;;;5052905;28;20211;-85
2023/02/10 08:59:52;;;;;;;10.97;5.97;;;2.00;97.30;;;;;;5052505;28;20445;-85
2023/02/10 09:02:18;;;;;;;11.13;4.80;;;2.10;97.30;;;;;;5053314;28;20425;-85
2023/02/10 09:04:44;;;;;;;8.40;5.63;;;2.10;97.30;;;;;;5052655;28;20213;-86
2023/02/10 09:07:10;;;;;;;8.57;7.37;;;2.20;97.30;;;;;;5070405;28;20202;-85
2023/02/10 09:09:40;;;;;;;6.33;5.97;;;2.20;97.30;;;;;;5052724;28;20217;-85
2023/02/10 09:12:09;;;;;;;6.83;5.13;;;2.30;97.30;;;;;;5052696;28;20417;-85
2023/02/10 09:14:34;;;;;;;11.50;8.60;;;2.30;97.30;;;;;;5052569;28;20560;-85
2023/02/10 09:17:00;;;;;;;12.63;7.83;;;2.40;97.30;;;;;;5052534;28;20895;-85
2023/02/10 09:19:26;;;;;;;14.73;8.07;;;2.40;97.30;;;;;;5044172;28;20229;-85
2023/02/10 09:21:51;;;;;;;18.13;6.53;;;2.40;97.30;;;;;;5052136;28;20172;-86
2023/02/10 09:24:17;;;;;;;5.90;5.60;;;2.50;97.30;;;;;;5051675;28;20229;-85
2023/02/10 09:26:43;;;;;;;15.17;6.67;;;2.50;97.30;;;;;;5052322;28;20685;-85
2023/02/10 09:29:10;;;;;;;23.07;8.77;;;2.50;97.30;;;;;;5051899;28;20348;-85
2023/02/10 09:31:36;;;;;;;7.40;4.00;;;2.70;97.30;;;;;;5070939;28;20946;-85
2023/02/10 09:34:01;;;;;;;5.20;4.83;;;2.80;97.30;;;;;;5054027;28;20493;-85
2023/02/10 09:36:27;;;;;;;24.27;6.67;;;2.90;97.30;;;;;;5052251;28;20208;-85
2023/02/10 09:38:54;;;;;;;8.93;4.60;;;3.00;97.30;;;;;;5051340;28;20179;-85
2023/02/10 09:41:34;;;;;;;12.70;8.10;;;3.10;97.30;;;;;;5056198;28;20202;-85
2023/02/10 09:44:15;;;;;;;6.77;4.30;;;3.10;97.30;;;;;;5056109;28;20542;-85
2023/02/10 09:46:46;;;;;;;18.23;6.77;;;3.20;97.30;;;;;;5074180;28;20469;-85
2023/02/10 09:49:33;;;;;;;6.20;4.47;;;3.30;97.30;;;;;;5055984;28;20944;-85
2023/02/10 09:52:04;;;;;;;19.30;7.97;;;3.40;97.30;;;;;;5056608;28;20421;-86
2023/02/10 09:54:32;;;;;;;7.43;4.90;;;3.50;97.30;;;;;;5048057;28;20476;-86
2023/02/10 09:57:03;;;;;;;8.03;6.07;;;3.50;97.30;;;;;;5055437;28;20492;-85
2023/02/10 09:59:32;;;;;;;17.27;7.57;;;3.60;97.30;;;;;;5055701;28;20417;-85
2023/02/10 10:02:03;;;;;;;21.60;8.20;;;3.60;97.30;;;;;;5055933;28;20417;-86
2023/02/10 10:04:31;;;;;;;11.23;4.30;;;3.60;97.30;;;;;;5065621;28;20416;-85
2023/02/10 10:07:23;;;;;;;18.03;9.93;;;3.50;97.30;;;;;;5055846;28;20970;-85
2023/02/10 10:10:21;;;;;;;8.00;3.93;;;3.60;97.30;;;;;;5055271;28;20413;-85
2023/02/10 10:12:47;;;;;;;8.73;7.13;;;3.80;97.30;;;;;;5052128;28;20417;-84
2023/02/10 10:15:18;;;;;;;8.20;5.33;;;3.90;97.30;;;;;;5055446;28;20994;-85
2023/02/10 10:18:01;;;;;;;9.17;7.33;;;4.00;97.30;;;;;;5055813;28;20441;-86
2023/02/10 10:21:15;;;;;;;15.90;6.20;;;4.10;97.30;;;;;;5073283;28;20417;-85
2023/02/10 10:23:59;;;;;;;14.50;6.07;;;4.10;97.30;;;;;;5007776;28;20414;-85
2023/02/10 10:26:36;;;;;;;13.40;4.33;;;4.20;97.30;;;;;;5047060;28;20984;-86
2023/02/10 10:29:22;;;;;;;11.40;6.50;;;4.20;97.30;;;;;;5073695;28;20423;-87
2023/02/10 10:31:53;;;;;;;24.87;8.83;;;4.20;97.30;;;;;;5049787;28;20429;-85
2023/02/10 10:34:23;;;;;;;10.47;5.27;;;4.20;97.30;;;;;;5055005;28;20457;-85
2023/02/10 10:36:53;;;;;;;16.77;5.73;;;4.20;97.30;;;;;;5072297;28;21005;-85
2023/02/10 10:39:31;;;;;;;26.10;5.20;;;4.20;97.30;;;;;;5055398;28;20926;-85
2023/02/10 10:42:00;;;;;;;4.17;3.93;;;4.20;97.30;;;;;;5073131;28;20417;-85
2023/02/10 10:44:30;;;;;;;7.23;6.83;;;4.30;97.30;;;;;;5054010;28;20445;-85
2023/02/10 10:47:13;;;;;;;8.27;4.53;;;4.40;97.30;;;;;;5054684;28;20945;-85
2023/02/10 10:49:39;;;;;;;8.80;7.77;;;4.50;97.30;;;;;;5055732;28;20467;-85
2023/02/10 10:52:31;;;;;;;6.17;4.77;;;4.50;97.30;;;;;;5073020;28;20728;-86
2023/02/10 10:54:57;;;;;;;25.63;7.40;;;4.60;97.30;;;;;;5055163;28;20669;-85
2023/02/10 10:57:25;;;;;;;5.60;4.90;;;4.50;97.30;;;;;;5073196;28;20422;-85
2023/02/10 10:59:55;;;;;;;10.63;5.90;;;4.50;97.30;;;;;;5072426;28;20175;-85
2023/02/10 11:02:24;;;;;;;16.10;5.40;;;4.50;97.30;;;;;;5054790;28;20572;-85
2023/02/10 11:05:12;;;;;;;7.87;3.57;;;4.70;97.30;;;;;;5054593;28;20585;-85
2023/02/10 11:07:39;;;;;;;10.13;7.50;;;4.80;97.30;;;;;;5054571;28;20941;-85
2023/02/10 11:10:06;;;;;;;13.73;5.57;;;5.00;97.30;;;;;;5054644;28;20843;-85
2023/02/10 11:12:39;;;;;;;6.03;4.37;;;5.20;97.30;;;;;;5064091;28;20420;-85
2023/02/10 11:15:39;;;;;;;14.07;7.47;;;5.40;97.30;;;;;;5072196;28;20978;-86
2023/02/10 11:18:13;;;;;;;15.73;5.83;;;5.50;97.30;;;;;;5069761;28;20417;-86
2023/02/10 11:20:39;;;;;;;11.50;6.87;;;5.50;97.30;;;;;;5061727;28;20409;-83
2023/02/10 11:23:14;;;;;;;5.67;4.50;;;5.50;97.30;;;;;;5062413;28;20444;-84
2023/02/10 11:25:40;;;;;;;24.63;6.30;;;5.50;97.30;;;;;;5072532;28;20198;-85
2023/02/10 11:28:16;;;;;;;7.53;4.43;;;5.40;97.30;;;;;;5079970;28;20511;-85
2023/02/10 11:30:42;;;;;;;10.70;6.33;;;5.30;97.30;;;;;;5054221;28;20915;-86
2023/02/10 11:33:21;;;;;;;10.30;5.80;;;5.10;97.30;;;;;;5077191;28;20425;-86
2023/02/10 11:35:52;;;;;;;16.60;6.97;;;5.00;97.30;;;;;;5054813;28;20294;-87
2023/02/10 11:38:21;;;;;;;7.17;5.80;;;4.90;97.30;;;;;;5054364;28;20409;-85
2023/02/10 11:40:58;;;;;;;14.60;4.97;;;4.90;97.30;;;;;;5054079;28;20431;-85
2023/02/10 11:43:40;;;;;;;12.50;5.73;;;5.00;97.30;;;;;;5071998;28;20417;-86
2023/02/10 11:46:09;;;;;;;7.37;4.83;;;5.10;97.30;;;;;;5053218;28;20784;-86
2023/02/10 11:48:35;;;;;;;4.03;2.80;;;5.20;97.30;;;;;;5060361;28;20516;-86
2023/02/10 11:51:05;;;;;;;7.43;3.03;;;5.20;97.30;;;;;;5053051;28;20425;-86
2023/02/10 11:53:34;;;;;;;5.03;4.37;;;5.30;97.30;;;;;;5056733;28;20510;-85
2023/02/10 11:56:10;;;;;;;6.23;2.53;;;5.30;97.30;;;;;;5064444;28;20432;-86
2023/02/10 11:58:59;;;;;;;16.77;4.97;;;5.30;97.30;;;;;;5069818;28;20452;-86
2023/02/10 12:01:40;;;;;;;10.43;5.67;;;5.20;97.30;;;;;;5071752;28;20413;-86
2023/02/10 12:04:39;;;;;;;2.93;2.73;;;5.30;97.30;;;;;;5057897;28;20428;-86
2023/02/10 12:07:29;;;;;;;4.07;3.83;;;5.30;97.30;;;;;;5053074;28;20438;-86
2023/02/10 12:10:22;;;;;;;9.50;3.97;;;5.30;97.30;;;;;;5053305;28;20417;-86
2023/02/10 12:13:01;;;;;;;7.57;4.70;;;5.40;97.30;;;;;;5075790;28;20435;-86
2023/02/10 12:16:11;;;;;;;5.20;3.80;;;5.50;97.30;;;;;;5053787;28;20496;-85
2023/02/10 12:18:54;;;;;;;10.63;6.80;;;5.60;97.30;;;;;;5049062;28;20418;-86
2023/02/10 12:21:28;;;;;;;19.57;3.47;;;5.60;97.30;;;;;;5069679;28;20508;-86
2023/02/10 12:24:28;;;;;;;23.63;5.30;;;5.70;97.30;;;;;;5071154;28;20444;-86
2023/02/10 12:27:18;;;;;;;2.60;2.40;;;5.80;97.30;;;;;;5047369;28;20460;-86
2023/02/10 12:30:00;;;;;;;15.50;6.87;;;6.00;97.30;;;;;;5037721;28;20456;-86
2023/02/10 12:32:50;;;;;;;13.40;5.17;;;6.00;97.30;;;;;;5067725;28;20424;-85
2023/02/10 12:35:46;;;;;;;4.77;3.60;;;6.10;97.30;;;;;;5061175;28;20468;-86
2023/02/10 12:38:53;;;;;;;11.17;4.70;;;6.10;97.30;;;;;;5056229;28;20944;-86
2023/02/10 12:41:50;;;;;;;7.67;3.33;;;6.10;97.30;;;;;;5078247;28;20417;-85
2023/02/10 12:44:22;;;;;;;11.70;4.47;;;6.10;97.30;;;;;;5061103;28;20776;-85
2023/02/10 12:47:02;;;;;;;6.53;2.50;;;6.30;97.30;;;;;;5057936;28;20470;-85
2023/02/10 12:49:58;;;;;;;9.00;5.60;;;6.40;97.30;;;;;;5072175;28;20459;-86
2023/02/10 12:52:32;;;;;;;5.33;2.23;;;6.50;97.00;;;;;;5064467;28;21072;-85
2023/02/10 12:55:13;;;;;;;10.20;4.00;;;6.50;96.80;;;;;;5076392;28;20532;-86
2023/02/10 12:58:16;;;;;;;6.70;4.67;;;6.50;96.40;;;;;;5058285;28;20425;-85
2023/02/10 13:00:57;;;;;;;8.03;4.30;;;6.50;96.50;;;;;;5013152;28;20417;-86
2023/02/10 13:03:32;;;;;;;9.57;6.00;;;6.50;96.20;;;;;;5063499;28;20474;-85
2023/02/10 13:06:13;;;;;;;4.93;3.03;;;6.50;96.30;;;;;;5067073;28;20467;-86
2023/02/10 13:08:46;;;;;;;8.97;4.30;;;6.60;96.40;;;;;;5046598;28;20769;-86